Time;durP1;ratioP1;P1;durP2;ratioP2;P2;SDS_P1;SDS_P2;PMS_P1;PMS_P2;Temp;Humidity;BMP_temperature;BMP_pressure;BME280_temperature;BME280_humidity;BME280_pressure;Samples;Min_cycle;Max_cycle;Signal;HPM_P1;HPM_P2
2022/05/15 00:01:23;;;;;;;12.90;5.57;;;13.40;99.90;;;-141.84;61.15;18694.16;5011138;28;20236;-67
2022/05/15 00:03:51;;;;;;;13.30;5.47;;;13.40;99.90;;;-141.84;61.57;18706.38;5011064;28;20757;-66
2022/05/15 00:06:19;;;;;;;11.27;5.30;;;13.40;99.90;;;-141.84;61.49;18688.06;5011116;28;20261;-67
2022/05/15 00:08:48;;;;;;;9.63;5.53;;;13.40;99.90;;;-141.84;61.82;18686.03;5011303;28;20293;-67
2022/05/15 00:11:18;;;;;;;8.43;4.87;;;13.30;99.90;;;-141.84;62.30;18665.72;5011280;28;20356;-68
2022/05/15 00:13:48;;;;;;;8.43;5.20;;;13.30;99.90;;;-141.84;62.18;18635.25;5011453;28;20202;-67
2022/05/15 00:16:17;;;;;;;9.83;5.33;;;13.20;99.90;;;-141.84;62.70;18645.41;5010947;28;20329;-67
2022/05/15 00:18:47;;;;;;;10.50;5.40;;;13.20;99.90;;;-141.84;63.56;18645.41;5010929;28;20258;-67
2022/05/15 00:21:15;;;;;;;10.67;4.90;;;13.10;99.90;;;-141.84;63.87;18657.59;5011038;28;20309;-67
2022/05/15 00:23:44;;;;;;;11.27;5.60;;;13.10;99.90;;;-141.84;63.85;18629.16;5010784;28;20226;-67
2022/05/15 00:26:13;;;;;;;8.20;4.77;;;13.00;99.90;;;-141.84;64.23;18600.72;5010394;28;20245;-67
2022/05/15 00:28:41;;;;;;;9.43;4.87;;;13.00;99.90;;;-141.84;64.33;18635.25;5011737;28;20199;-68
2022/05/15 00:31:10;;;;;;;13.23;5.80;;;12.90;99.90;;;-141.84;64.67;18635.25;5022587;28;20232;-67
2022/05/15 00:33:39;;;;;;;11.93;5.37;;;12.90;99.90;;;-141.84;64.57;18625.09;5030215;28;20760;-67
2022/05/15 00:36:08;;;;;;;11.20;5.17;;;12.80;99.90;;;-141.84;65.14;18614.94;5012933;28;20234;-68
2022/05/15 00:38:36;;;;;;;10.57;5.07;;;12.80;99.90;;;-141.84;65.82;18614.94;5010545;28;20599;-66
2022/05/15 00:41:05;;;;;;;10.23;5.43;;;12.70;99.90;;;-141.84;65.70;18570.22;5010877;28;20192;-66
2022/05/15 00:43:45;;;;;;;8.90;4.73;;;12.70;99.90;;;-141.84;66.38;18560.06;5010862;28;20675;-67
2022/05/15 00:46:18;;;;;;;8.13;5.10;;;12.60;99.90;;;-141.84;66.33;18590.56;5011072;28;20226;-68
2022/05/15 00:48:48;;;;;;;10.27;5.37;;;12.60;99.90;;;-141.84;66.21;18564.13;5010694;28;20246;-66
2022/05/15 00:51:25;;;;;;;10.10;5.10;;;12.50;99.90;;;-141.84;66.08;18574.28;5010606;28;20228;-67
2022/05/15 00:54:06;;;;;;;9.30;5.07;;;12.50;99.90;;;-141.84;65.93;18594.63;5010146;28;20235;-66
2022/05/15 00:56:38;;;;;;;10.63;5.20;;;12.60;99.90;;;-141.84;66.72;18576.31;5010606;28;20218;-67
2022/05/15 00:59:13;;;;;;;9.27;5.50;;;12.50;99.90;;;-141.84;67.00;18556.00;5010977;28;20229;-68
2022/05/15 01:01:42;;;;;;;11.73;5.63;;;12.50;99.90;;;-141.84;67.23;18549.91;5011516;28;20510;-68
2022/05/15 01:04:10;;;;;;;12.00;5.13;;;12.50;99.90;;;-141.84;67.54;18572.25;5010160;28;20313;-67
2022/05/15 01:06:43;;;;;;;11.33;5.67;;;12.40;99.90;;;-141.84;67.47;18533.66;5010428;28;20317;-67
2022/05/15 01:09:12;;;;;;;10.63;5.40;;;12.40;99.90;;;-141.84;68.10;18537.72;5010854;28;20230;-67
2022/05/15 01:11:44;;;;;;;8.97;5.73;;;12.30;99.90;;;-141.84;68.20;18503.19;5010274;28;20226;-68
2022/05/15 01:14:15;;;;;;;10.93;5.47;;;12.30;99.90;;;-141.84;68.47;18503.19;5010500;28;20183;-68
2022/05/15 01:16:44;;;;;;;15.70;6.00;;;12.20;99.90;;;-141.84;68.58;18537.72;5010811;28;20731;-67
2022/05/15 01:19:12;;;;;;;10.47;5.53;;;12.20;99.90;;;-141.84;68.97;18503.19;5010049;28;20305;-67
2022/05/15 01:21:55;;;;;;;10.83;6.20;;;12.10;99.90;;;-141.84;69.27;18460.53;5010329;28;20251;-66
2022/05/15 01:24:23;;;;;;;11.87;5.80;;;12.10;99.90;;;-141.84;69.15;18495.06;5009961;28;20237;-68
2022/05/15 01:26:51;;;;;;;10.70;5.60;;;12.00;99.90;;;-141.84;69.34;18511.31;5010225;28;20230;-68
2022/05/15 01:29:27;;;;;;;11.13;5.67;;;12.00;99.90;;;-141.84;69.16;18491.00;5010494;28;20230;-67
2022/05/15 01:31:56;;;;;;;9.53;5.40;;;12.00;99.90;;;-141.84;69.15;18478.81;5028612;28;20630;-67
2022/05/15 01:34:25;;;;;;;9.50;5.23;;;12.00;99.90;;;-141.84;69.34;18484.91;5026451;28;20641;-66
2022/05/15 01:36:54;;;;;;;10.57;5.63;;;12.00;99.90;;;-141.84;69.20;18505.22;5010155;28;20229;-66
2022/05/15 01:39:22;;;;;;;11.93;5.47;;;12.00;99.90;;;-141.84;69.71;18482.88;5012110;28;20240;-67
2022/05/15 01:41:50;;;;;;;9.57;5.37;;;12.00;99.90;;;-141.84;69.43;18488.97;5013848;28;20326;-67
2022/05/15 01:44:18;;;;;;;8.40;5.67;;;12.00;99.90;;;-141.84;69.43;18495.06;5013946;28;20339;-67
2022/05/15 01:46:48;;;;;;;11.03;5.77;;;12.00;99.90;;;-141.84;69.75;18488.97;5014368;28;20211;-67
2022/05/15 01:49:17;;;;;;;10.77;5.90;;;12.00;99.90;;;-141.84;69.97;18484.91;5013710;28;20238;-66
2022/05/15 01:51:46;;;;;;;9.37;5.57;;;12.00;99.90;;;-141.84;69.54;18484.91;5013895;28;20396;-66
2022/05/15 01:54:16;;;;;;;10.97;5.77;;;12.00;99.90;;;-141.84;69.68;18493.03;4996775;28;20666;-66
2022/05/15 01:56:44;;;;;;;9.93;5.93;;;12.00;99.90;;;-141.84;69.79;18440.22;4994382;28;20249;-67
2022/05/15 01:59:13;;;;;;;12.93;6.27;;;11.90;99.90;;;-141.84;70.20;18495.06;4994314;28;20223;-66
2022/05/15 02:01:41;;;;;;;11.90;6.20;;;11.90;99.90;;;-141.84;70.26;18456.47;4994709;28;20210;-66
2022/05/15 02:04:09;;;;;;;11.10;5.60;;;11.90;99.90;;;-141.84;69.99;18486.94;4995116;28;20280;-67
2022/05/15 02:06:38;;;;;;;8.80;5.93;;;11.80;99.90;;;-141.84;70.78;18444.28;5013552;28;20603;-67
2022/05/15 02:09:09;;;;;;;10.27;5.87;;;11.80;99.90;;;-141.84;71.44;18442.25;5013510;28;20305;-66
2022/05/15 02:11:38;;;;;;;10.80;6.47;;;11.70;99.90;;;-141.84;70.68;18452.41;5013761;28;20296;-67
2022/05/15 02:14:07;;;;;;;10.87;5.37;;;11.80;99.90;;;-141.84;70.72;18425.97;5013508;28;20202;-65
2022/05/15 02:16:36;;;;;;;11.40;6.00;;;11.80;99.90;;;-141.84;71.21;18462.56;5013908;28;20203;-66
2022/05/15 02:19:06;;;;;;;10.43;5.57;;;11.70;99.90;;;-141.84;71.04;18438.19;5013269;28;20301;-66
2022/05/15 02:21:34;;;;;;;11.53;5.50;;;11.70;99.90;;;-141.84;70.86;18456.47;5013291;28;20227;-67
2022/05/15 02:24:02;;;;;;;10.03;6.17;;;11.70;99.90;;;-141.84;70.82;18442.25;5013166;28;20237;-67
2022/05/15 02:26:30;;;;;;;11.77;6.30;;;11.70;99.90;;;-141.84;71.43;18438.19;5013759;28;20740;-67
2022/05/15 02:28:59;;;;;;;10.30;5.70;;;11.70;99.90;;;-141.84;71.43;18448.34;5013492;28;20694;-67
2022/05/15 02:31:27;;;;;;;13.93;6.20;;;11.70;99.90;;;-141.84;71.50;18450.38;5014094;28;20216;-68
2022/05/15 02:33:58;;;;;;;10.07;5.67;;;11.60;99.90;;;-141.84;70.69;18452.41;5028979;28;20237;-67
2022/05/15 02:36:26;;;;;;;9.40;5.60;;;11.60;99.90;;;-141.84;71.31;18480.84;5013243;28;20325;-66
2022/05/15 02:38:54;;;;;;;8.50;5.30;;;11.60;99.90;;;-141.84;71.28;18438.19;5013240;28;20319;-66
2022/05/15 02:41:22;;;;;;;13.33;6.00;;;11.60;99.90;;;-141.84;71.71;18466.63;5013348;28;20236;-66
2022/05/15 02:43:50;;;;;;;10.07;5.70;;;11.50;99.90;;;-141.84;71.92;18446.31;5013766;28;20206;-67
2022/05/15 02:46:20;;;;;;;9.93;5.97;;;11.50;99.90;;;-141.84;71.73;18417.84;5025739;28;20668;-67
2022/05/15 02:51:33;;;;;;;10.97;5.80;;;11.50;99.90;;;-141.84;72.54;18415.81;5032634;28;20304;-66
2022/05/15 02:54:01;;;;;;;7.47;5.27;;;11.40;99.90;;;-141.84;72.76;18417.84;5017449;28;20289;-66
2022/05/15 02:56:35;;;;;;;10.30;5.90;;;11.40;99.90;;;-141.84;72.20;18432.09;5013398;28;20314;-66
2022/05/15 02:59:05;;;;;;;11.07;5.70;;;11.40;99.90;;;-141.84;71.91;18379.25;5013455;28;20213;-67
2022/05/15 03:01:35;;;;;;;13.00;5.80;;;11.40;99.90;;;-141.84;72.11;18434.13;5013243;28;20666;-68
2022/05/15 03:04:05;;;;;;;8.63;5.90;;;11.40;99.90;;;-141.84;72.05;18440.22;5012962;28;20654;-66
2022/05/15 03:06:33;;;;;;;10.83;5.80;;;11.40;99.90;;;-141.84;71.78;18419.88;5019176;28;20242;-68
2022/05/15 03:09:01;;;;;;;13.70;6.60;;;11.40;99.90;;;-141.84;71.77;18430.06;5021588;28;20309;-67
2022/05/15 03:11:31;;;;;;;10.53;6.00;;;11.40;99.90;;;-141.84;71.35;18444.28;5028217;28;20252;-66
2022/05/15 03:13:59;;;;;;;10.67;6.10;;;11.50;99.90;;;-141.84;71.12;18393.47;5012697;28;20207;-65
2022/05/15 03:16:28;;;;;;;10.03;6.50;;;11.50;99.90;;;-141.84;71.64;18395.50;5012754;28;20249;-66
2022/05/15 03:18:58;;;;;;;10.60;5.63;;;11.60;99.90;;;-141.84;72.34;18399.56;5012510;28;20234;-66
2022/05/15 03:21:32;;;;;;;10.63;6.43;;;11.50;99.90;;;-141.84;72.37;18421.91;5011704;28;20237;-66
2022/05/15 03:24:03;;;;;;;9.57;6.20;;;11.50;99.90;;;-141.84;72.72;18385.34;5012137;28;20313;-65
2022/05/15 03:26:35;;;;;;;11.87;6.37;;;11.40;99.90;;;-141.84;72.80;18387.38;5011988;28;20667;-67
2022/05/15 03:29:04;;;;;;;9.70;6.27;;;11.40;99.90;;;-141.84;73.25;18393.47;5012304;28;20238;-65
2022/05/15 03:31:35;;;;;;;11.87;6.07;;;11.30;99.90;;;-141.84;73.38;18393.47;5012441;28;20286;-66
2022/05/15 03:34:06;;;;;;;12.73;6.47;;;11.30;99.90;;;-141.84;73.27;18387.38;5028925;28;20565;-67
2022/05/15 03:36:34;;;;;;;11.57;6.23;;;11.30;99.90;;;-141.84;73.36;18371.13;5018444;28;20223;-67
2022/05/15 03:39:03;;;;;;;9.43;6.33;;;11.30;99.90;;;-141.84;72.84;18393.47;5020795;28;20300;-67
2022/05/15 03:41:31;;;;;;;9.33;6.60;;;11.30;99.90;;;-141.84;72.95;18393.47;5026807;28;20250;-67
2022/05/15 03:43:59;;;;;;;10.70;6.03;;;11.30;99.90;;;-141.84;73.41;18387.38;5012089;28;20285;-65
2022/05/15 03:46:27;;;;;;;10.40;6.80;;;11.30;99.90;;;-141.84;73.17;18383.31;5012193;28;20209;-66
2022/05/15 03:48:55;;;;;;;11.10;6.20;;;11.30;99.90;;;-141.84;73.89;18338.63;5011728;28;20446;-66
2022/05/15 03:51:25;;;;;;;12.67;6.70;;;11.30;99.90;;;-141.84;74.06;18346.75;5011403;28;20223;-66
2022/05/15 03:53:53;;;;;;;14.37;7.03;;;11.30;99.90;;;-141.84;74.66;18342.69;4997438;28;20231;-66
2022/05/15 03:56:49;;;;;;;10.50;6.57;;;11.30;99.90;;;-141.84;73.85;18373.16;4992037;28;20237;-68
2022/05/15 03:59:13;;;;;;;10.00;6.67;;;11.30;99.90;;;-141.84;73.92;18354.88;4992313;28;20207;-67
2022/05/15 04:01:41;;;;;;;10.67;6.63;;;11.40;99.90;;;-141.84;73.62;18350.81;4991522;28;20249;-67
2022/05/15 04:04:10;;;;;;;15.83;6.60;;;11.40;99.90;;;-141.84;73.44;18385.34;4993274;28;20314;-67
2022/05/15 04:06:39;;;;;;;9.83;6.30;;;11.50;99.90;;;-141.84;74.10;18377.22;5011275;28;20286;-68
2022/05/15 04:09:08;;;;;;;12.97;6.80;;;11.50;99.90;;;-141.84;74.09;18405.66;5011321;28;20237;-66
2022/05/15 04:11:36;;;;;;;12.17;6.33;;;11.50;99.90;;;-141.84;73.48;18389.41;5011001;28;20226;-66
2022/05/15 04:14:05;;;;;;;12.30;6.00;;;11.50;99.90;;;-141.84;73.53;18375.19;5011268;28;20213;-66
2022/05/15 04:16:33;;;;;;;12.00;6.67;;;11.60;99.90;;;-141.84;74.19;18363.00;5011557;28;20282;-65
2022/05/15 04:19:02;;;;;;;12.60;6.40;;;11.60;99.90;;;-141.84;73.68;18360.97;5011185;28;20230;-67
2022/05/15 04:21:36;;;;;;;10.90;6.80;;;11.70;99.90;;;-141.84;74.51;18377.22;5010791;28;20767;-66
2022/05/15 04:24:11;;;;;;;10.37;6.13;;;11.80;99.90;;;-141.84;74.67;18326.44;5010777;28;20820;-66
2022/05/15 04:26:40;;;;;;;12.27;6.97;;;11.80;99.90;;;-141.84;75.12;18363.00;5011090;28;20257;-67
2022/05/15 04:29:09;;;;;;;10.57;6.07;;;11.90;99.90;;;-141.84;75.47;18405.66;5011556;28;20209;-66
2022/05/15 04:31:37;;;;;;;12.53;6.50;;;12.00;99.90;;;-141.84;75.52;18358.94;5011295;28;20233;-68
2022/05/15 04:34:06;;;;;;;11.40;6.67;;;12.00;99.90;;;-141.84;75.22;18328.47;5028057;28;20249;-66
2022/05/15 04:36:35;;;;;;;10.10;6.73;;;12.10;99.90;;;-141.84;75.51;18338.63;5017273;28;20249;-67
2022/05/15 04:39:06;;;;;;;12.40;7.07;;;12.10;99.90;;;-141.84;74.71;18377.22;5019587;28;20257;-66
2022/05/15 04:41:34;;;;;;;9.33;6.23;;;12.20;99.90;;;-141.84;74.22;18401.59;5030445;28;20241;-66
2022/05/15 04:44:02;;;;;;;11.07;6.50;;;12.30;99.90;;;-141.84;73.66;18389.41;5030502;28;20245;-64
2022/05/15 04:46:30;;;;;;;11.53;6.83;;;12.40;99.90;;;-141.84;73.41;18407.69;5030860;28;20229;-66
2022/05/15 04:48:59;;;;;;;11.00;6.23;;;12.50;99.90;;;-141.84;72.67;18432.09;5030487;28;20248;-67
2022/05/15 04:51:28;;;;;;;10.63;6.00;;;12.60;99.90;;;-141.84;70.55;18491.00;5030069;28;20317;-52
2022/05/15 04:53:56;;;;;;;9.07;5.83;;;12.90;99.90;;;-141.84;67.84;18560.06;5015726;28;20254;-52
2022/05/15 04:56:26;;;;;;;10.15;5.45;;;13.70;99.90;;;-141.84;58.56;18856.72;5010485;28;20321;-49
2022/05/15 04:58:54;;;;;;;8.95;5.47;;;14.90;99.90;;;-141.84;53.46;19074.13;5011602;28;20213;-52
2022/05/15 05:01:25;;;;;;;10.20;4.78;;;16.00;99.90;;;-141.84;48.82;19303.75;5010176;28;20226;-53
2022/05/15 05:03:54;;;;;;;6.93;4.72;;;17.00;99.90;;;-141.84;44.68;19490.72;5010277;28;20300;-53
2022/05/15 05:06:23;;;;;;;7.88;5.00;;;17.90;99.90;;;-141.84;42.80;19630.94;5029448;28;20222;-51
2022/05/15 05:08:51;;;;;;;9.45;5.07;;;18.40;99.90;;;-141.84;41.03;19704.09;5030268;28;20688;-53
2022/05/15 05:11:20;;;;;;;12.00;4.60;;;19.00;99.90;;;-141.84;40.41;19746.78;5029988;28;20240;-55
2022/05/15 05:13:50;;;;;;;8.93;5.10;;;19.20;99.90;;;-141.84;40.26;19744.75;5033428;28;20296;-55
2022/05/15 05:16:19;;;;;;;11.77;5.10;;;19.20;99.90;;;-141.84;39.44;19785.38;5033791;28;20248;-54
2022/05/15 05:18:48;;;;;;;10.13;5.32;;;19.00;99.90;;;-141.84;39.97;19750.84;5033574;28;20237;-54
2022/05/15 05:21:16;;;;;;;7.03;4.65;;;18.90;99.90;;;-141.84;41.01;19643.13;5034154;28;20240;-54
2022/05/15 05:23:44;;;;;;;9.40;5.43;;;18.50;99.90;;;-141.84;43.43;19496.81;5033766;28;20312;-55
2022/05/15 05:26:12;;;;;;;8.77;4.80;;;18.20;99.90;;;-141.84;45.02;19368.78;5034097;28;20201;-52
2022/05/15 05:28:40;;;;;;;9.80;5.32;;;17.60;99.90;;;-141.84;46.54;19293.59;5034375;28;20206;-56
2022/05/15 05:31:11;;;;;;;12.25;5.25;;;17.20;99.90;;;-141.84;48.10;19187.91;5045528;28;20228;-54
2022/05/15 05:33:39;;;;;;;6.32;4.50;;;17.00;99.90;;;-141.84;49.36;19139.16;5051517;28;20666;-52
2022/05/15 05:36:09;;;;;;;6.88;4.88;;;16.60;99.90;;;-141.84;50.05;19137.13;5033609;28;20222;-54
2022/05/15 05:38:38;;;;;;;6.63;4.57;;;16.40;99.90;;;-141.84;51.00;19114.78;5033266;28;20249;-55
2022/05/15 05:41:06;;;;;;;9.00;4.68;;;16.40;99.90;;;-141.84;51.45;19080.22;5033804;28;20226;-53
2022/05/15 05:43:34;;;;;;;9.80;4.57;;;16.50;99.90;;;-141.84;50.74;19122.91;5033667;28;20319;-53
2022/05/15 05:46:02;;;;;;;8.50;4.50;;;16.60;99.90;;;-141.84;50.05;19092.41;5033370;28;20227;-53
2022/05/15 05:48:32;;;;;;;8.13;4.57;;;16.50;99.90;;;-141.84;50.95;19078.19;5033030;28;20240;-53
2022/05/15 05:51:00;;;;;;;7.93;4.40;;;16.50;99.90;;;-141.84;51.71;19066.00;5033756;28;20317;-53
2022/05/15 05:53:28;;;;;;;8.52;4.18;;;16.50;99.90;;;-141.84;51.49;19045.69;5033084;28;20309;-55
2022/05/15 05:55:56;;;;;;;6.75;3.78;;;16.60;99.90;;;-141.84;50.40;19078.19;5033676;28;20288;-52
2022/05/15 05:58:24;;;;;;;7.70;4.00;;;16.70;99.90;;;-141.84;50.31;19070.06;5033267;28;20214;-51
2022/05/15 06:00:52;;;;;;;9.02;4.28;;;16.80;99.90;;;-141.84;49.84;19112.75;5033412;28;20230;-54
2022/05/15 06:06:07;;;;;;;5.35;3.45;;;17.10;99.90;;;-141.84;49.60;19192.00;5033275;28;20312;-48
2022/05/15 06:08:35;;;;;;;7.28;4.22;;;17.20;99.90;;;-141.84;49.00;19179.78;5031933;28;20338;-52
2022/05/15 06:11:04;;;;;;;7.07;4.50;;;17.10;99.90;;;-141.84;48.72;19163.53;5033107;28;20557;-53
2022/05/15 06:13:32;;;;;;;6.72;3.90;;;17.00;99.90;;;-141.84;48.52;19159.47;5033289;28;20681;-55
2022/05/15 06:16:00;;;;;;;8.18;4.25;;;17.10;99.90;;;-141.84;48.38;19147.28;5032929;28;20309;-52
2022/05/15 06:18:28;;;;;;;7.25;3.88;;;17.10;99.90;;;-141.84;48.05;19204.19;5032446;28;20234;-52
2022/05/15 06:20:56;;;;;;;7.28;3.90;;;17.20;99.90;;;-141.84;48.04;19177.75;5032985;28;20313;-52
2022/05/15 06:23:25;;;;;;;7.57;4.10;;;17.10;99.90;;;-141.84;48.39;19202.16;5032341;28;20226;-52
2022/05/15 06:25:53;;;;;;;6.88;3.65;;;17.30;99.90;;;-141.84;48.42;19183.84;5032492;28;20206;-50
2022/05/15 06:28:21;;;;;;;7.43;3.80;;;17.20;99.90;;;-141.84;48.84;19224.50;5032331;28;20222;-52
2022/05/15 06:30:49;;;;;;;8.80;3.85;;;17.20;99.90;;;-141.84;48.47;19171.66;5032550;28;20271;-53
2022/05/15 06:33:17;;;;;;;8.77;3.97;;;17.20;99.90;;;-141.84;48.36;19179.78;5032042;28;20226;-53
2022/05/15 06:35:45;;;;;;;9.40;3.97;;;17.40;99.90;;;-141.84;48.09;19202.16;5031286;28;20286;-55
2022/05/15 06:38:14;;;;;;;8.38;3.80;;;17.50;99.90;;;-141.84;48.74;19212.31;5032069;28;20212;-56
2022/05/15 06:40:44;;;;;;;8.63;3.80;;;17.50;99.90;;;-141.84;48.07;19224.50;5033890;28;20369;-50
2022/05/15 06:43:12;;;;;;;7.30;4.00;;;17.60;99.90;;;-141.84;48.43;19181.81;5032373;28;20311;-54
2022/05/15 06:45:40;;;;;;;9.20;3.72;;;17.50;99.90;;;-141.84;48.39;19189.97;5032274;28;20225;-55
2022/05/15 06:48:09;;;;;;;8.40;4.10;;;17.50;99.90;;;-141.84;48.44;19202.16;5032204;28;20248;-53
2022/05/15 06:50:37;;;;;;;5.85;3.88;;;17.30;99.90;;;-141.84;48.34;19208.25;5032658;28;20225;-53
2022/05/15 06:53:05;;;;;;;6.60;3.90;;;17.20;99.90;;;-141.84;48.41;19187.91;5031931;28;20198;-53
2022/05/15 06:55:33;;;;;;;7.20;4.13;;;17.40;99.90;;;-141.84;48.03;19183.84;5032542;28;20210;-52
2022/05/15 06:58:01;;;;;;;8.15;4.45;;;17.40;99.90;;;-141.84;48.16;19169.63;5032272;28;20232;-52
2022/05/15 07:00:29;;;;;;;11.52;4.65;;;17.40;99.90;;;-141.84;47.93;19208.25;5031933;28;20240;-51
2022/05/15 07:02:57;;;;;;;7.95;3.83;;;17.50;99.90;;;-141.84;46.92;19226.53;5032115;28;20248;-52
2022/05/15 07:05:31;;;;;;;8.45;3.83;;;17.40;99.90;;;-141.84;46.97;19236.69;5032131;28;20226;-53
2022/05/15 07:07:59;;;;;;;7.30;3.70;;;17.40;99.90;;;-141.84;46.41;19267.16;5032062;28;20534;-54
2022/05/15 07:10:27;;;;;;;7.40;3.50;;;17.60;99.90;;;-141.84;46.79;19248.88;5033020;28;20222;-48
2022/05/15 07:12:55;;;;;;;7.15;3.50;;;17.70;99.90;;;-141.84;47.20;19230.59;5031727;28;20317;-53
2022/05/15 07:15:24;;;;;;;5.05;3.38;;;17.70;99.90;;;-141.84;47.27;19269.22;5031680;28;20717;-52
2022/05/15 07:17:52;;;;;;;7.57;3.60;;;17.60;99.90;;;-141.84;47.57;19216.38;5031821;28;20333;-53
2022/05/15 07:20:20;;;;;;;6.30;3.63;;;17.50;99.90;;;-141.84;46.86;19234.66;5032210;28;20304;-52
2022/05/15 07:22:48;;;;;;;5.68;3.17;;;17.40;99.90;;;-141.84;47.45;19240.75;5032190;28;20230;-52
2022/05/15 07:25:16;;;;;;;8.45;3.67;;;17.50;99.90;;;-141.84;48.12;19198.09;5031572;28;20709;-52
2022/05/15 07:27:44;;;;;;;9.75;3.95;;;17.50;99.90;;;-141.84;47.85;19226.53;5031667;28;20234;-53
2022/05/15 07:30:14;;;;;;;8.88;3.70;;;17.60;99.90;;;-141.84;48.03;19208.25;5035591;28;20224;-54
2022/05/15 07:32:47;;;;;;;8.60;3.65;;;17.60;99.90;;;-141.84;48.41;19226.53;5051356;28;20236;-56
2022/05/15 07:35:17;;;;;;;5.50;3.40;;;17.50;99.90;;;-141.84;47.67;19196.06;5040588;28;20218;-52
2022/05/15 07:37:45;;;;;;;7.70;3.63;;;17.50;99.90;;;-141.84;47.63;19187.91;5032191;28;20316;-54
2022/05/15 07:40:14;;;;;;;7.63;3.58;;;17.40;99.90;;;-141.84;47.83;19171.66;5031294;28;20236;-55
2022/05/15 07:42:43;;;;;;;5.53;3.53;;;17.40;99.90;;;-141.84;48.46;19179.78;5031156;28;20229;-53
2022/05/15 07:45:13;;;;;;;8.90;3.58;;;17.10;99.90;;;-141.84;48.33;19187.91;5031106;28;20246;-53
2022/05/15 07:47:42;;;;;;;6.82;3.33;;;17.20;99.90;;;-141.84;48.52;19159.47;5031043;28;20231;-52
2022/05/15 07:50:13;;;;;;;6.93;3.33;;;17.20;99.90;;;-141.84;48.46;19187.91;5029782;28;20678;-53
2022/05/15 07:52:41;;;;;;;8.32;3.38;;;17.30;99.90;;;-141.84;48.38;19200.13;5026442;28;20195;-50
2022/05/15 07:55:12;;;;;;;6.97;3.30;;;17.40;99.90;;;-141.84;47.98;19206.22;5021607;28;20280;-54
2022/05/15 07:57:39;;;;;;;5.20;2.92;;;17.50;99.90;;;-141.84;48.05;19208.25;5030236;28;20825;-54
2022/05/15 08:00:13;;;;;;;9.02;3.63;;;17.60;99.90;;;-141.84;48.04;19222.47;5030577;28;20270;-53
2022/05/15 08:02:42;;;;;;;6.90;3.15;;;17.60;99.90;;;-141.84;46.29;19271.25;5030429;28;20260;-51
2022/05/15 08:08:01;;;;;;;5.70;3.17;;;17.70;99.90;;;-141.84;47.13;19263.09;5030022;28;20206;-49
2022/05/15 08:10:32;;;;;;;9.45;3.78;;;17.60;99.90;;;-141.84;47.14;19273.28;5011671;28;20219;-54
2022/05/15 08:13:00;;;;;;;7.15;3.03;;;17.70;99.90;;;-141.84;47.19;19248.88;5010994;28;20231;-51
2022/05/15 08:15:30;;;;;;;5.60;2.92;;;17.70;99.90;;;-141.84;47.18;19242.78;5010608;28;20237;-53
2022/05/15 08:23:33;;;;;;;7.25;3.08;;;17.70;99.90;;;-141.84;46.10;19275.31;5010655;28;20281;-54
2022/05/15 08:23:40;;;;;;;6.28;2.97;;;17.90;99.90;;;-141.84;46.31;19309.84;5010329;28;20238;-51
2022/05/15 08:26:09;;;;;;;7.53;3.30;;;17.90;99.90;;;-141.84;44.55;19322.03;5010695;28;20312;-52
2022/05/15 08:28:37;;;;;;;11.45;3.13;;;18.00;99.90;;;-141.84;44.49;19372.84;5011145;28;20203;-49
2022/05/15 08:31:09;;;;;;;8.15;3.00;;;18.10;99.90;;;-141.84;45.22;19301.72;5010330;28;20225;-50
2022/05/15 08:33:38;;;;;;;7.55;3.25;;;18.00;99.90;;;-141.84;45.59;19297.66;5023805;28;20253;-53
2022/05/15 08:36:09;;;;;;;4.63;2.60;;;18.00;99.90;;;-141.84;45.54;19285.47;5020671;28;20306;-52
2022/05/15 08:38:39;;;;;;;7.95;2.70;;;17.90;99.90;;;-141.84;45.66;19307.81;5015811;28;20301;-53
2022/05/15 08:41:19;;;;;;;7.82;3.00;;;18.00;99.90;;;-141.84;44.28;19391.13;5028707;28;20248;-55
2022/05/15 08:44:02;;;;;;;6.47;3.22;;;18.00;99.90;;;-141.84;43.85;19378.94;5010938;28;20314;-53
2022/05/15 08:46:41;;;;;;;7.68;3.15;;;18.20;99.90;;;-141.84;44.07;19354.56;5030131;28;20286;-51
2022/05/15 08:49:12;;;;;;;7.82;3.25;;;18.20;99.90;;;-141.84;43.95;19364.72;5029129;28;20783;-53
2022/05/15 08:51:54;;;;;;;9.73;3.05;;;18.20;99.90;;;-141.84;43.81;19350.50;5030195;28;20590;-56
2022/05/15 08:54:23;;;;;;;7.47;3.42;;;18.20;99.90;;;-141.84;43.71;19385.03;5029832;28;20225;-53
2022/05/15 08:56:51;;;;;;;7.03;3.17;;;18.20;99.90;;;-141.84;44.43;19362.69;5029591;28;20616;-53
2022/05/15 08:59:26;;;;;;;8.15;3.13;;;18.20;99.90;;;-141.84;44.38;19358.63;5029536;28;20731;-55
2022/05/15 09:01:59;;;;;;;6.90;3.08;;;18.20;99.90;;;-141.84;44.53;19370.81;5030494;28;20190;-56
2022/05/15 09:04:30;;;;;;;8.32;3.40;;;18.30;99.90;;;-141.84;45.28;19338.28;5029643;28;20246;-52
2022/05/15 09:07:14;;;;;;;5.90;2.80;;;18.30;99.90;;;-141.84;44.02;19391.13;5013097;28;20230;-52
2022/05/15 09:09:58;;;;;;;7.10;3.00;;;18.40;99.90;;;-141.84;44.27;19395.19;5009827;28;20305;-53
2022/05/15 09:12:26;;;;;;;7.22;2.92;;;18.50;99.90;;;-141.84;44.69;19397.22;5009888;28;20230;-50
2022/05/15 09:15:01;;;;;;;9.52;4.07;;;18.50;99.90;;;-141.84;44.47;19435.84;5009935;28;20230;-51
2022/05/15 09:17:38;;;;;;;7.28;3.47;;;18.60;99.90;;;-141.84;44.39;19391.13;5009798;28;20223;-54
2022/05/15 09:20:12;;;;;;;9.20;3.10;;;18.60;99.90;;;-141.84;44.39;19401.28;5010764;28;20305;-54
2022/05/15 09:22:48;;;;;;;5.72;3.13;;;18.70;99.90;;;-141.84;43.61;19421.63;5029938;28;20695;-55
2022/05/15 09:25:21;;;;;;;7.13;3.10;;;18.90;99.90;;;-141.84;44.05;19419.59;5029433;28;20251;-55
2022/05/15 09:28:03;;;;;;;8.20;3.40;;;18.90;99.90;;;-141.84;43.81;19429.75;5029743;28;20222;-55
2022/05/15 09:30:42;;;;;;;9.70;3.15;;;18.90;99.90;;;-141.84;44.00;19419.59;5036844;28;20231;-51
2022/05/15 09:33:27;;;;;;;8.32;3.25;;;18.90;99.90;;;-141.84;43.34;19439.91;5049945;28;20229;-51
2022/05/15 09:36:23;;;;;;;7.18;3.20;;;18.90;99.90;;;-141.84;43.95;19435.84;5033678;28;20762;-54
2022/05/15 09:39:14;;;;;;;7.28;2.90;;;18.90;99.90;;;-141.84;43.33;19439.91;5029311;28;20233;-56
2022/05/15 09:44:31;;;;;;;8.07;3.13;;;19.00;99.90;;;-141.84;43.38;19435.84;5029378;28;20249;-54
2022/05/15 09:47:04;;;;;;;6.82;3.35;;;19.00;99.90;;;-141.84;42.80;19472.41;5029575;28;20283;-57
2022/05/15 09:49:35;;;;;;;7.88;3.30;;;19.00;99.90;;;-141.84;42.33;19492.75;5029696;28;20281;-52
2022/05/15 09:52:13;;;;;;;6.43;3.10;;;19.10;99.90;;;-141.84;42.44;19482.56;5029559;28;20763;-54
2022/05/15 09:54:47;;;;;;;6.60;2.83;;;19.20;99.90;;;-141.84;42.70;19504.94;5009458;28;20313;-54
2022/05/15 09:57:22;;;;;;;7.43;3.17;;;19.30;99.90;;;-141.84;42.05;19521.19;5019928;28;20249;-51
2022/05/15 10:00:00;;;;;;;9.27;3.35;;;19.30;99.90;;;-141.84;42.13;19525.25;5030545;28;20704;-54
2022/05/15 10:02:40;;;;;;;7.72;3.10;;;19.50;99.90;;;-141.84;41.73;19537.44;5033768;28;20229;-54
2022/05/15 10:05:20;;;;;;;7.60;3.15;;;19.60;99.90;;;-141.84;41.00;19602.47;5032650;28;20217;-50
2022/05/15 10:08:01;;;;;;;10.07;3.72;;;19.70;99.90;;;-141.84;40.31;19596.38;5033033;28;20276;-53
2022/05/15 10:10:36;;;;;;;7.63;3.17;;;19.80;99.90;;;-141.84;39.94;19628.91;5033072;28;20291;-56
2022/05/15 10:13:14;;;;;;;9.63;3.47;;;19.80;99.90;;;-141.84;40.40;19567.94;5032911;28;20228;-53
2022/05/15 10:15:50;;;;;;;8.35;2.90;;;19.60;99.90;;;-141.84;40.45;19600.44;5032655;28;20325;-55
2022/05/15 10:18:25;;;;;;;6.53;3.20;;;19.60;99.90;;;-141.84;40.66;19582.16;5032303;28;20240;-55
2022/05/15 10:20:57;;;;;;;8.60;3.25;;;19.70;99.90;;;-141.84;40.38;19590.28;5032617;28;20304;-55
2022/05/15 10:23:30;;;;;;;7.18;2.88;;;19.60;99.90;;;-141.84;39.95;19606.53;5032616;28;20312;-55
2022/05/15 10:26:09;;;;;;;9.05;3.22;;;19.60;99.90;;;-141.84;40.55;19553.72;5032596;28;20186;-59
2022/05/15 10:28:45;;;;;;;8.13;3.30;;;19.50;99.90;;;-141.84;40.90;19557.78;5032961;28;20200;-55
2022/05/15 10:31:22;;;;;;;9.75;3.25;;;19.40;99.90;;;-141.84;40.67;19582.16;5032956;28;20366;-58